Time;durP1;ratioP1;P1;durP2;ratioP2;P2;SDS_P1;SDS_P2;PMS_P1;PMS_P2;Temp;Humidity;BMP_temperature;BMP_pressure;BME280_temperature;BME280_humidity;BME280_pressure;Samples;Min_cycle;Max_cycle;Signal;HPM_P1;HPM_P2
2023/04/03 00:01:43;;;;;;;;;;;;;;;20.33;46.10;102542.31;4963444;28;2628;-63
2023/04/03 00:04:10;;;;;;;;;;;;;;;20.32;46.08;102537.94;4967245;28;2607;-63
2023/04/03 00:06:36;;;;;;;;;;;;;;;20.33;46.06;102545.22;4965811;28;2551;-63
2023/04/03 00:09:02;;;;;;;;;;;;;;;20.31;46.24;102545.06;4966728;28;2671;-63
2023/04/03 00:11:29;;;;;;;;;;;;;;;20.32;46.11;102549.47;4965534;28;2993;-63
2023/04/03 00:13:55;;;;;;;;;;;;;;;20.32;46.39;102549.47;4964625;28;2837;-63
2023/04/03 00:16:21;;;;;;;;;;;;;;;20.32;46.21;102543.69;4962424;28;2631;-63
2023/04/03 00:18:48;;;;;;;;;;;;;;;20.33;46.28;102550.97;4966931;28;2635;-63
2023/04/03 00:21:15;;;;;;;;;;;;;;;20.34;46.25;102555.38;4965735;28;2608;-63
2023/04/03 00:23:41;;;;;;;;;;;;;;;20.35;46.21;102550.34;4966031;28;2560;-63
2023/04/03 00:26:08;;;;;;;;;;;;;;;20.35;46.15;102550.34;4966417;28;2615;-63
2023/04/03 00:28:36;;;;;;;;;;;;;;;20.34;45.98;102540.97;4963883;28;2664;-63
2023/04/03 00:31:02;;;;;;;;;;;;;;;20.33;46.16;102550.22;4963905;28;2561;-63
2023/04/03 00:33:29;;;;;;;;;;;;;;;20.30;46.14;102552.19;4964811;28;2697;-63
2023/04/03 00:35:55;;;;;;;;;;;;;;;20.30;46.22;102547.19;4965015;28;2576;-63
2023/04/03 00:38:22;;;;;;;;;;;;;;;20.30;46.12;102550.06;4965519;28;2579;-63
2023/04/03 00:40:48;;;;;;;;;;;;;;;20.29;46.12;102544.91;4964135;28;2916;-63
2023/04/03 00:43:18;;;;;;;;;;;;;;;20.29;46.12;102557.19;4966389;28;2627;-63
2023/04/03 00:45:46;;;;;;;;;;;;;;;20.30;46.24;102552.19;4963040;28;2556;-63
2023/04/03 00:48:13;;;;;;;;;;;;;;;20.29;46.26;102567.91;4965853;28;2600;-63
2023/04/03 00:50:41;;;;;;;;;;;;;;;20.30;46.08;102563.69;4965438;28;2652;-63
2023/04/03 00:53:07;;;;;;;;;;;;;;;20.30;46.06;102557.94;4964506;28;2666;-63
2023/04/03 00:55:34;;;;;;;;;;;;;;;20.31;46.07;102568.06;4947214;28;2642;-63
2023/04/03 00:58:00;;;;;;;;;;;;;;;20.29;46.27;102565.03;4948356;28;2680;-63
2023/04/03 01:00:27;;;;;;;;;;;;;;;20.31;46.04;102568.06;4963391;28;2644;-63
2023/04/03 01:02:53;;;;;;;;;;;;;;;20.32;46.09;102566.72;4948032;28;2649;-63
2023/04/03 01:05:20;;;;;;;;;;;;;;;20.32;46.10;102566.72;4948541;28;2675;-63
2023/04/03 01:07:47;;;;;;;;;;;;;;;20.32;46.13;102560.19;4963046;28;2559;-63
2023/04/03 01:10:14;;;;;;;;;;;;;;;20.28;46.12;102555.66;4941450;28;2568;-63
2023/04/03 01:12:41;;;;;;;;;;;;;;;20.30;46.06;102563.69;4943702;28;2685;-63
2023/04/03 01:15:17;;;;;;;;;;;;;;;20.30;46.18;102563.69;4947493;28;2684;-63
2023/04/03 01:17:47;;;;;;;;;;;;;;;20.28;46.10;102567.16;4964478;28;2523;-63
2023/04/03 01:20:24;;;;;;;;;;;;;;;20.27;46.03;102565.66;4960920;28;2621;-63
2023/04/03 01:23:12;;;;;;;;;;;;;;;20.27;46.15;102565.66;4947658;28;2579;-63
2023/04/03 01:25:40;;;;;;;;;;;;;;;20.27;46.18;102564.88;4965616;28;2471;-63
2023/04/03 01:28:08;;;;;;;;;;;;;;;20.26;46.13;102566.25;4950143;28;2392;-63
2023/04/03 01:30:38;;;;;;;;;;;;;;;20.26;46.18;102563.38;4939000;28;2723;-63
2023/04/03 01:33:05;;;;;;;;;;;;;;;20.25;46.01;102565.50;4944805;28;2852;-63
2023/04/03 01:35:32;;;;;;;;;;;;;;;20.26;46.01;102566.25;4944235;28;2549;-63
2023/04/03 01:37:59;;;;;;;;;;;;;;;20.28;45.86;102569.28;4951901;28;2353;-63
2023/04/03 01:40:25;;;;;;;;;;;;;;;20.28;45.96;102577.91;4966722;28;2613;-63
2023/04/03 01:42:51;;;;;;;;;;;;;;;20.27;45.96;102577.16;4951473;28;2447;-63
2023/04/03 01:45:18;;;;;;;;;;;;;;;20.29;45.95;102573.66;4961599;28;2644;-63
2023/04/03 01:47:44;;;;;;;;;;;;;;;20.29;45.98;102580.19;4963121;28;2611;-63
2023/04/03 01:50:11;;;;;;;;;;;;;;;20.29;45.98;102585.97;4944597;28;2698;-63
2023/04/03 01:52:37;;;;;;;;;;;;;;;20.27;45.99;102576.38;4968115;28;2564;-63
2023/04/03 01:55:04;;;;;;;;;;;;;;;20.27;46.14;102587.91;4949380;28;3067;-63
2023/04/03 01:57:30;;;;;;;;;;;;;;;20.27;45.99;102587.91;4953986;28;2746;-63
2023/04/03 01:59:57;;;;;;;;;;;;;;;20.26;45.94;102587.16;4964652;28;2716;-64
2023/04/03 02:02:23;;;;;;;;;;;;;;;20.25;46.02;102588.53;4948867;28;2448;-63
2023/04/03 02:04:51;;;;;;;;;;;;;;;20.24;46.03;102594.88;4966829;28;2717;-63
2023/04/03 02:07:17;;;;;;;;;;;;;;;20.24;45.98;102592.00;4951972;28;2458;-63
2023/04/03 02:09:43;;;;;;;;;;;;;;;20.24;46.07;102594.88;4968914;28;2555;-64
2023/04/03 02:12:10;;;;;;;;;;;;;;;20.23;45.85;102594.13;4968176;28;2611;-63
2023/04/03 02:14:36;;;;;;;;;;;;;;;20.24;45.89;102592.00;4968961;28;2658;-63
2023/04/03 02:17:04;;;;;;;;;;;;;;;20.24;45.96;102589.88;4968661;28;2655;-63
2023/04/03 02:19:31;;;;;;;;;;;;;;;20.25;45.98;102590.66;4967000;28;2607;-63
2023/04/03 02:21:57;;;;;;;;;;;;;;;20.26;46.18;102587.16;4969621;28;1605;-63
2023/04/03 02:24:24;;;;;;;;;;;;;;;20.26;46.06;102589.28;4968997;28;2619;-63
2023/04/03 02:26:50;;;;;;;;;;;;;;;20.27;45.97;102596.53;4968500;28;2608;-63
2023/04/03 02:29:17;;;;;;;;;;;;;;;20.27;46.12;102591.56;4966482;28;2665;-63
2023/04/03 02:31:43;;;;;;;;;;;;;;;20.26;45.94;102592.16;4950971;28;2733;-63
2023/04/03 02:34:10;;;;;;;;;;;;;;;20.26;45.88;102589.28;4967759;28;2458;-63
2023/04/03 02:36:37;;;;;;;;;;;;;;;20.27;45.87;102593.66;4947870;28;1990;-63
2023/04/03 02:39:07;;;;;;;;;;;;;;;20.25;45.92;102596.41;4949338;28;2655;-63
2023/04/03 02:41:37;;;;;;;;;;;;;;;20.24;45.98;102618.63;4947770;28;2699;-63
2023/04/03 02:44:10;;;;;;;;;;;;;;;20.24;46.11;102623.66;4945768;28;2651;-63
2023/04/03 02:46:36;;;;;;;;;;;;;;;20.24;45.91;102618.63;4947512;28;2879;-63
2023/04/03 02:49:03;;;;;;;;;;;;;;;20.25;45.91;102622.28;4947107;28;2583;-63
2023/04/03 02:51:29;;;;;;;;;;;;;;;20.24;46.07;102623.66;4945570;28;2555;-63
2023/04/03 02:53:56;;;;;;;;;;;;;;;20.25;46.03;102616.53;4946883;28;2632;-63
2023/04/03 02:56:27;;;;;;;;;;;;;;;20.26;45.78;102629.56;4945785;28;2596;-63
2023/04/03 02:58:53;;;;;;;;;;;;;;;20.28;45.88;102623.94;4946244;28;2517;-63
2023/04/03 03:01:19;;;;;;;;;;;;;;;20.28;45.87;102626.84;4948790;28;2767;-63
2023/04/03 03:03:46;;;;;;;;;;;;;;;20.29;45.90;102631.22;4947634;28;2691;-63
2023/04/03 03:06:13;;;;;;;;;;;;;;;20.29;45.94;102631.22;4963726;28;2567;-64
2023/04/03 03:08:39;;;;;;;;;;;;;;;20.29;45.83;102637.75;4963197;28;2432;-64
2023/04/03 03:11:06;;;;;;;;;;;;;;;20.28;45.97;102641.97;4947653;28;2618;-64
2023/04/03 03:13:32;;;;;;;;;;;;;;;20.31;45.93;102640.00;4945103;28;2684;-63
2023/04/03 03:15:58;;;;;;;;;;;;;;;20.31;45.83;102640.00;4959600;28;2694;-63
2023/04/03 03:18:25;;;;;;;;;;;;;;;20.28;45.93;102641.97;4961197;28;2769;-63
2023/04/03 03:20:52;;;;;;;;;;;;;;;20.30;45.87;102641.38;4948199;28;2209;-63
2023/04/03 03:23:19;;;;;;;;;;;;;;;20.29;45.82;102643.50;4947251;28;2507;-63
2023/04/03 03:25:45;;;;;;;;;;;;;;;20.29;46.05;102640.63;4948094;28;2427;-63
2023/04/03 03:28:12;;;;;;;;;;;;;;;20.29;45.90;102642.72;4947558;28;2394;-63
2023/04/03 03:30:38;;;;;;;;;;;;;;;20.28;45.96;102658.47;4935618;28;2628;-63
2023/04/03 03:33:04;;;;;;;;;;;;;;;20.27;45.91;102646.22;4947193;28;2489;-63
2023/04/03 03:35:31;;;;;;;;;;;;;;;20.28;45.79;102655.59;4955274;28;2603;-63
2023/04/03 03:37:58;;;;;;;;;;;;;;;20.29;45.81;102645.59;4962980;28;2707;-63
2023/04/03 03:40:26;;;;;;;;;;;;;;;20.29;45.75;102645.59;4950275;28;2366;-63
2023/04/03 03:42:52;;;;;;;;;;;;;;;20.29;45.86;102636.97;4967683;28;2655;-63
2023/04/03 03:45:18;;;;;;;;;;;;;;;20.28;45.80;102644.09;4946124;28;1985;-64
2023/04/03 03:47:45;;;;;;;;;;;;;;;20.30;45.86;102638.50;4936930;28;2631;-63
2023/04/03 03:50:11;;;;;;;;;;;;;;;20.30;45.74;102645.00;4950248;28;2072;-63
2023/04/03 03:52:38;;;;;;;;;;;;;;;20.30;45.85;102638.50;4948913;28;2487;-64
2023/04/03 03:55:05;;;;;;;;;;;;;;;20.30;45.87;102638.50;4965951;28;2366;-63
2023/04/03 03:57:34;;;;;;;;;;;;;;;20.30;45.77;102647.13;4948942;28;2446;-63
2023/04/03 04:00:00;;;;;;;;;;;;;;;20.29;45.90;102643.50;4948204;28;2462;-63
2023/04/03 04:02:28;;;;;;;;;;;;;;;20.29;45.98;102642.72;4950194;28;2623;-63
2023/04/03 04:04:54;;;;;;;;;;;;;;;20.28;45.92;102635.47;4966924;28;2559;-63
2023/04/03 04:07:21;;;;;;;;;;;;;;;20.27;45.81;102639.69;4949159;28;2583;-63
2023/04/03 04:09:47;;;;;;;;;;;;;;;20.28;45.85;102635.47;4968234;28;2019;-63
2023/04/03 04:12:14;;;;;;;;;;;;;;;20.27;45.73;102639.69;4966184;28;2677;-64
2023/04/03 04:14:40;;;;;;;;;;;;;;;20.28;46.02;102629.72;4952198;28;2847;-64
2023/04/03 04:17:08;;;;;;;;;;;;;;;20.28;45.84;102639.09;4948960;28;2617;-63
2023/04/03 04:19:35;;;;;;;;;;;;;;;20.30;45.88;102638.50;4949879;28;2655;-64
2023/04/03 04:22:02;;;;;;;;;;;;;;;20.30;45.71;102647.13;4948515;28;3030;-64
2023/04/03 04:24:30;;;;;;;;;;;;;;;20.29;45.94;102642.72;4966240;28;2556;-64
2023/04/03 04:26:57;;;;;;;;;;;;;;;20.30;45.63;102632.75;4966450;28;2166;-64
2023/04/03 04:29:24;;;;;;;;;;;;;;;20.32;45.68;102647.28;4965450;28;2558;-63
2023/04/03 04:31:51;;;;;;;;;;;;;;;20.32;45.68;102641.53;4961614;28;2628;-64
2023/04/03 04:34:17;;;;;;;;;;;;;;;20.33;45.73;102645.91;4966614;28;1939;-64
2023/04/03 04:36:44;;;;;;;;;;;;;;;20.32;45.83;102641.53;4950442;28;2431;-63
2023/04/03 04:39:10;;;;;;;;;;;;;;;20.31;45.80;102645.75;4952178;28;2588;-63
2023/04/03 04:41:37;;;;;;;;;;;;;;;20.30;45.82;102650.00;4967204;28;1772;-63
2023/04/03 04:44:05;;;;;;;;;;;;;;;20.31;45.74;102648.63;4963389;28;2673;-63
2023/04/03 04:46:31;;;;;;;;;;;;;;;20.29;45.71;102654.22;4950838;28;1939;-63
2023/04/03 04:48:58;;;;;;;;;;;;;;;20.28;45.80;102664.22;4965505;28;2635;-64
2023/04/03 04:51:27;;;;;;;;;;;;;;;20.28;45.75;102659.22;4947973;28;2576;-63
2023/04/03 04:54:00;;;;;;;;;;;;;;;20.28;45.83;102659.22;4952764;28;2973;-64
2023/04/03 04:56:27;;;;;;;;;;;;;;;20.29;45.91;102665.72;4949046;28;2703;-63
2023/04/03 04:58:55;;;;;;;;;;;;;;;20.28;45.86;102667.84;4967165;28;2100;-61
2023/04/03 05:01:22;;;;;;;;;;;;;;;20.19;45.36;102679.38;4951887;28;2616;-64
2023/04/03 05:03:56;;;;;;;;;;;;;;;20.17;45.12;102665.56;4951952;28;2560;-65
2023/04/03 05:06:23;;;;;;;;;;;;;;;20.24;44.95;102672.56;4953847;28;2574;-65
2023/04/03 05:08:50;;;;;;;;;;;;;;;20.26;44.99;102672.72;4971016;28;2409;-65
2023/04/03 05:11:17;;;;;;;;;;;;;;;20.28;45.45;102670.75;4952910;28;2542;-64
2023/04/03 05:13:46;;;;;;;;;;;;;;;20.29;45.36;102680.13;4953778;28;2900;-64
2023/04/03 05:16:12;;;;;;;;;;;;;;;20.31;45.59;102680.28;4969222;28;2089;-65
2023/04/03 05:18:39;;;;;;;;;;;;;;;20.32;45.32;102676.06;4969648;28;2371;-65
2023/04/03 05:21:09;;;;;;;;;;;;;;;20.35;45.29;102674.09;4952707;28;3040;-65
2023/04/03 05:23:36;;;;;;;;;;;;;;;20.34;45.43;102679.09;4952539;28;2693;-65
2023/04/03 05:26:03;;;;;;;;;;;;;;;20.35;45.48;102676.97;4953045;28;2477;-65
2023/04/03 05:28:30;;;;;;;;;;;;;;;20.34;45.54;102679.09;4945547;28;1962;-65
2023/04/03 05:30:56;;;;;;;;;;;;;;;20.36;45.50;102682.09;4949974;28;2576;-65
2023/04/03 05:33:26;;;;;;;;;;;;;;;20.36;45.50;102684.97;4968118;28;2639;-65
2023/04/03 05:35:54;;;;;;;;;;;;;;;20.38;45.47;102690.88;4969775;28;2070;-65
2023/04/03 05:38:25;;;;;;;;;;;;;;;20.38;45.65;102690.88;4963863;28;2480;-65
2023/04/03 05:40:53;;;;;;;;;;;;;;;20.39;45.60;102692.41;4953280;28;2012;-65
2023/04/03 05:43:20;;;;;;;;;;;;;;;20.41;45.67;102686.81;4945366;28;2509;-65
2023/04/03 05:45:48;;;;;;;;;;;;;;;20.39;45.60;102686.66;4968291;28;2897;-65
2023/04/03 05:48:15;;;;;;;;;;;;;;;20.40;45.71;102693.91;4950035;28;2815;-64
2023/04/03 05:50:42;;;;;;;;;;;;;;;20.41;45.62;102700.41;4968067;28;2635;-64
2023/04/03 05:53:20;;;;;;;;;;;;;;;20.41;45.56;102706.97;4969775;28;1870;-65
2023/04/03 05:55:47;;;;;;;;;;;;;;;20.41;45.71;102706.97;4946681;28;2522;-64
2023/04/03 05:58:13;;;;;;;;;;;;;;;20.41;45.67;102715.59;4968801;28;2445;-65
2023/04/03 06:00:41;;;;;;;;;;;;;;;20.42;45.53;102714.22;4967734;28;2390;-65
2023/04/03 06:03:08;;;;;;;;;;;;;;;20.43;45.56;102701.34;4950390;28;2703;-64
2023/04/03 06:05:35;;;;;;;;;;;;;;;20.45;45.47;102713.00;4968481;28;2694;-65
2023/04/03 06:08:02;;;;;;;;;;;;;;;20.45;45.63;102710.13;4967671;28;2594;-65
2023/04/03 06:10:30;;;;;;;;;;;;;;;20.46;45.54;102705.88;4966036;28;2623;-64
2023/04/03 06:12:56;;;;;;;;;;;;;;;20.47;45.62;102718.91;4953335;28;2468;-65
2023/04/03 06:15:23;;;;;;;;;;;;;;;20.48;45.49;102717.56;4969843;28;2074;-65
2023/04/03 06:17:49;;;;;;;;;;;;;;;20.46;45.79;102714.53;4968374;28;2445;-65
2023/04/03 06:20:16;;;;;;;;;;;;;;;20.46;45.53;102723.16;4952366;28;2608;-65
2023/04/03 06:22:42;;;;;;;;;;;;;;;20.48;45.71;102722.56;4953862;28;2548;-65
2023/04/03 06:25:10;;;;;;;;;;;;;;;20.47;45.52;102727.53;4952717;28;2013;-65
2023/04/03 06:27:37;;;;;;;;;;;;;;;20.49;45.65;102716.19;4952197;28;2572;-64
2023/04/03 06:30:04;;;;;;;;;;;;;;;20.47;45.82;102716.03;4969492;28;2917;-65
2023/04/03 06:32:30;;;;;;;;;;;;;;;20.48;45.61;102723.31;4967182;28;2716;-64
2023/04/03 06:34:58;;;;;;;;;;;;;;;20.50;45.55;102725.56;4968824;28;2496;-64
2023/04/03 06:37:25;;;;;;;;;;;;;;;20.50;45.56;102732.09;4968993;28;2194;-65
2023/04/03 06:39:52;;;;;;;;;;;;;;;20.51;45.69;102736.47;4969103;28;2149;-65
2023/04/03 06:42:18;;;;;;;;;;;;;;;20.55;45.72;102738.16;4967841;28;2240;-65
2023/04/03 06:44:52;;;;;;;;;;;;;;;20.50;45.62;102732.09;4968507;28;1973;-64
2023/04/03 06:47:18;;;;;;;;;;;;;;;20.56;45.61;102740.47;4969271;28;1904;-64
2023/04/03 06:49:45;;;;;;;;;;;;;;;20.58;45.58;102745.63;4964858;28;2396;-65
2023/04/03 06:52:14;;;;;;;;;;;;;;;20.57;45.58;102744.09;4967884;28;2971;-64
2023/04/03 06:54:40;;;;;;;;;;;;;;;20.58;45.55;102742.75;4969538;28;2050;-65
2023/04/03 06:57:07;;;;;;;;;;;;;;;20.60;45.48;102740.03;4968665;28;2659;-64
2023/04/03 06:59:33;;;;;;;;;;;;;;;20.59;45.67;102747.13;4967842;28;2713;-64
2023/04/03 07:02:01;;;;;;;;;;;;;;;20.60;45.47;102757.28;4963099;28;3121;-64
2023/04/03 07:04:27;;;;;;;;;;;;;;;20.60;45.44;102751.53;4967803;28;1842;-64
2023/04/03 07:06:53;;;;;;;;;;;;;;;20.58;45.73;102749.25;4968214;28;1949;-64
2023/04/03 07:09:21;;;;;;;;;;;;;;;20.57;45.71;102759.25;4967781;28;2632;-64
2023/04/03 07:11:47;;;;;;;;;;;;;;;20.56;45.56;102756.94;4953137;28;1845;-65
2023/04/03 07:14:14;;;;;;;;;;;;;;;20.57;45.37;102750.63;4969311;28;2421;-64
2023/04/03 07:16:40;;;;;;;;;;;;;;;20.59;45.31;102750.78;4968344;28;2612;-64
2023/04/03 07:19:08;;;;;;;;;;;;;;;20.58;45.24;102762.88;4968343;28;2528;-65
2023/04/03 07:21:35;;;;;;;;;;;;;;;20.58;45.34;102777.28;4969109;28;3000;-65
2023/04/03 07:24:01;;;;;;;;;;;;;;;20.58;45.41;102765.78;4967888;28;2678;-65
2023/04/03 07:26:28;;;;;;;;;;;;;;;20.58;45.54;102778.03;4966448;28;2643;-65
2023/04/03 07:28:54;;;;;;;;;;;;;;;20.60;45.38;102774.56;4968335;28;2434;-65
2023/04/03 07:31:20;;;;;;;;;;;;;;;20.62;45.44;102772.59;4967644;28;2642;-64
2023/04/03 07:33:47;;;;;;;;;;;;;;;20.64;45.53;102774.88;4964599;28;2640;-68
2023/04/03 07:36:14;;;;;;;;;;;;;;;20.67;45.54;102783.03;4948642;28;2652;-62
2023/04/03 07:38:41;;;;;;;;;;;;;;;20.68;45.57;102783.78;4968868;28;1918;-65
2023/04/03 07:41:07;;;;;;;;;;;;;;;20.62;45.91;102777.59;4967499;28;1819;-64
2023/04/03 07:43:34;;;;;;;;;;;;;;;20.64;46.01;102777.75;4966051;28;1874;-65
2023/04/03 07:46:00;;;;;;;;;;;;;;;20.64;46.09;102780.63;4967878;28;1649;-64
2023/04/03 07:48:27;;;;;;;;;;;;;;;20.66;46.06;102783.63;4966979;28;1816;-64
2023/04/03 07:50:53;;;;;;;;;;;;;;;20.65;46.26;102788.66;4967685;28;1776;-64
2023/04/03 07:53:20;;;;;;;;;;;;;;;20.67;46.14;102785.91;4968787;28;1706;-64
2023/04/03 07:55:47;;;;;;;;;;;;;;;20.67;46.30;102782.28;4969157;28;1738;-64
2023/04/03 07:58:14;;;;;;;;;;;;;;;20.68;46.29;102787.44;4967000;28;1658;-65
2023/04/03 08:00:40;;;;;;;;;;;;;;;20.67;46.22;102774.41;4969185;28;1997;-64
2023/04/03 08:03:07;;;;;;;;;;;;;;;20.69;46.06;102782.44;4967838;28;2018;-65
2023/04/03 08:05:39;;;;;;;;;;;;;;;20.68;46.11;102775.16;4968372;28;1816;-65
2023/04/03 08:08:06;;;;;;;;;;;;;;;20.68;46.45;102781.69;4967072;28;1669;-65
2023/04/03 08:10:33;;;;;;;;;;;;;;;20.68;46.30;102784.56;4965504;28;1649;-65
2023/04/03 08:12:59;;;;;;;;;;;;;;;20.68;46.48;102780.91;4968952;28;1946;-64
2023/04/03 08:15:26;;;;;;;;;;;;;;;20.67;46.41;102788.06;4967147;28;1751;-65
2023/04/03 08:17:53;;;;;;;;;;;;;;;20.69;46.44;102788.22;4966994;28;1829;-64
2023/04/03 08:20:20;;;;;;;;;;;;;;;20.71;46.45;102797.00;4964990;28;1914;-64
2023/04/03 08:22:46;;;;;;;;;;;;;;;20.71;46.41;102791.25;4967881;28;1948;-65
2023/04/03 08:25:12;;;;;;;;;;;;;;;20.71;46.32;102792.00;4968623;28;1757;-65
2023/04/03 08:27:39;;;;;;;;;;;;;;;20.71;46.57;102792.00;4961055;28;1860;-64
2023/04/03 08:30:06;;;;;;;;;;;;;;;20.70;46.34;102792.59;4966186;28;1960;-65
2023/04/03 08:32:35;;;;;;;;;;;;;;;20.70;46.44;102789.72;4968715;28;1658;-65
2023/04/03 08:35:02;;;;;;;;;;;;;;;20.70;46.41;102778.19;4966030;28;1888;-65
2023/04/03 08:37:29;;;;;;;;;;;;;;;20.70;46.43;102787.59;4965081;28;1954;-65
2023/04/03 08:39:55;;;;;;;;;;;;;;;20.67;46.43;102780.16;4968989;28;1954;-65
2023/04/03 08:42:36;;;;;;;;;;;;;;;20.67;46.45;102774.41;4964795;28;1634;-65
2023/04/03 08:45:06;;;;;;;;;;;;;;;20.72;46.22;102769.72;4966103;28;1936;-64
2023/04/03 08:47:40;;;;;;;;;;;;;;;20.70;46.38;102772.44;4968287;28;1725;-64
2023/04/03 08:50:08;;;;;;;;;;;;;;;20.71;46.33;102774.72;4966836;28;1783;-65
2023/04/03 08:52:37;;;;;;;;;;;;;;;20.71;46.36;102762.44;4949955;28;1689;-64
2023/04/03 08:55:04;;;;;;;;;;;;;;;20.72;46.45;102781.22;4961902;28;1802;-64
2023/04/03 08:57:35;;;;;;;;;;;;;;;20.72;46.48;102769.72;4964220;28;1935;-64
2023/04/03 09:00:10;;;;;;;;;;;;;;;20.72;46.52;102781.22;4966060;28;1918;-65
2023/04/03 09:02:44;;;;;;;;;;;;;;;20.68;46.39;102770.19;4966267;28;1935;-65
2023/04/03 09:05:14;;;;;;;;;;;;;;;20.70;46.57;102770.31;4947304;28;1916;-65
2023/04/03 09:07:45;;;;;;;;;;;;;;;20.68;46.49;102775.16;4967623;28;1813;-65
2023/04/03 09:10:15;;;;;;;;;;;;;;;20.68;46.34;102780.91;4946037;28;1706;-64
2023/04/03 09:12:42;;;;;;;;;;;;;;;20.73;46.30;102777.00;4963475;28;1883;-64
2023/04/03 09:15:11;;;;;;;;;;;;;;;20.74;46.30;102775.63;4968439;28;1754;-65
2023/04/03 09:17:41;;;;;;;;;;;;;;;20.75;46.25;102785.00;4967428;28;1868;-64
2023/04/03 09:20:19;;;;;;;;;;;;;;;20.73;46.33;102777.00;4948399;28;1938;-65
2023/04/03 09:22:47;;;;;;;;;;;;;;;20.76;46.23;102775.03;4948565;28;1674;-64
2023/04/03 09:25:19;;;;;;;;;;;;;;;20.75;46.30;102776.38;4968084;28;1714;-64
2023/04/03 09:27:46;;;;;;;;;;;;;;;20.75;46.34;102768.50;4966102;28;1644;-64
2023/04/03 09:30:16;;;;;;;;;;;;;;;20.74;46.21;102774.88;4964026;28;1809;-65
2023/04/03 09:32:44;;;;;;;;;;;;;;;20.73;46.37;102765.50;4961306;28;1964;-65
2023/04/03 09:35:13;;;;;;;;;;;;;;;20.75;46.31;102770.63;4966547;28;1636;-65
2023/04/03 09:37:49;;;;;;;;;;;;;;;20.76;46.30;102769.28;4966422;28;1912;-65
2023/04/03 09:40:24;;;;;;;;;;;;;;;20.75;46.25;102777.13;4965257;28;1918;-65
2023/04/03 09:42:51;;;;;;;;;;;;;;;20.76;46.23;102775.78;4967904;28;1788;-64
2023/04/03 09:45:27;;;;;;;;;;;;;;;20.77;46.25;102776.53;4961409;28;1616;-64
2023/04/03 09:48:08;;;;;;;;;;;;;;;20.79;46.28;102750.78;4970932;28;1739;-64
2023/04/03 09:50:50;;;;;;;;;;;;;;;20.80;46.21;102763.78;4970706;28;1595;-64
2023/04/03 09:53:27;;;;;;;;;;;;;;;20.80;46.16;102767.44;4966744;28;1536;-64
2023/04/03 09:55:53;;;;;;;;;;;;;;;20.80;46.28;102763.78;4967095;28;1608;-64
2023/04/03 09:58:30;;;;;;;;;;;;;;;20.79;46.37;102762.28;4968034;28;1750;-65
2023/04/03 10:01:24;;;;;;;;;;;;;;;20.81;46.30;102748.81;4955192;28;1989;-64
2023/04/03 10:04:10;;;;;;;;;;;;;;;20.79;46.20;102757.28;4970195;28;1652;-65
2023/04/03 10:06:40;;;;;;;;;;;;;;;20.83;46.12;102751.84;4968352;28;1612;-64
2023/04/03 10:09:27;;;;;;;;;;;;;;;20.81;46.02;102748.06;4970266;28;1743;-64
2023/04/03 10:11:56;;;;;;;;;;;;;;;20.83;46.09;102751.09;4968245;28;1842;-64
2023/04/03 10:14:22;;;;;;;;;;;;;;;20.84;46.04;102750.47;4970134;28;1626;-64
2023/04/03 10:16:55;;;;;;;;;;;;;;;20.83;46.01;102737.44;4951470;28;1700;-64
2023/04/03 10:19:30;;;;;;;;;;;;;;;20.82;46.18;102750.34;4968480;28;1895;-65
2023/04/03 10:22:00;;;;;;;;;;;;;;;20.84;45.94;102729.56;4970048;28;1672;-65
2023/04/03 10:24:45;;;;;;;;;;;;;;;20.87;46.01;102742.75;4968509;28;1741;-64
2023/04/03 10:27:13;;;;;;;;;;;;;;;20.85;45.91;102737.59;4968963;28;1731;-65
2023/04/03 10:29:42;;;;;;;;;;;;;;;20.83;45.96;102740.31;4967257;28;1721;-64
2023/04/03 10:32:20;;;;;;;;;;;;;;;20.83;46.09;102734.56;4968572;28;1817;-64
2023/04/03 10:34:47;;;;;;;;;;;;;;;20.86;46.05;102730.44;4966068;28;1805;-64
2023/04/03 10:37:36;;;;;;;;;;;;;;;20.88;45.91;102736.38;4969471;28;1573;-64
2023/04/03 10:40:12;;;;;;;;;;;;;;;20.88;45.82;102727.72;4967946;28;1911;-64
2023/04/03 10:42:38;;;;;;;;;;;;;;;20.90;45.98;102721.38;4963826;28;2627;-67
2023/04/03 10:45:15;;;;;;;;;;;;;;;20.92;45.92;102722.28;4968597;28;2571;-61
2023/04/03 10:48:00;;;;;;;;;;;;;;;19.94;40.23;102723.50;4946004;28;2675;-65
2023/04/03 10:50:26;;;;;;;;;;;;;;;20.31;43.99;102720.56;4969185;28;2623;-69
2023/04/03 10:53:11;;;;;;;;;;;;;;;20.61;44.37;102719.25;4964522;28;2599;-64
2023/04/03 10:55:40;;;;;;;;;;;;;;;20.77;44.08;102713.94;4964871;28;2868;-66
2023/04/03 10:58:08;;;;;;;;;;;;;;;20.76;44.33;102706.69;4967755;28;2797;-66
2023/04/03 11:00:36;;;;;;;;;;;;;;;20.80;44.56;102709.88;4954707;28;2592;-66
2023/04/03 11:03:05;;;;;;;;;;;;;;;20.76;44.72;102703.81;4966926;28;2684;-66
2023/04/03 11:05:45;;;;;;;;;;;;;;;20.77;44.72;102708.19;4969143;28;3044;-66
2023/04/03 11:08:19;;;;;;;;;;;;;;;20.81;44.69;102696.22;4969158;28;3012;-63
2023/04/03 11:10:46;;;;;;;;;;;;;;;20.78;44.61;102697.44;4967906;28;1848;-65
2023/04/03 11:13:17;;;;;;;;;;;;;;;20.82;44.77;102698.50;4966336;28;2607;-65
2023/04/03 11:15:45;;;;;;;;;;;;;;;20.81;44.75;102702.72;4965243;28;2598;-65
2023/04/03 11:18:18;;;;;;;;;;;;;;;20.80;44.79;102695.47;4968191;28;2679;-65
2023/04/03 11:20:49;;;;;;;;;;;;;;;20.84;44.85;102698.63;4967046;28;3145;-65
2023/04/03 11:23:19;;;;;;;;;;;;;;;20.83;44.85;102688.47;4965709;28;2619;-66
2023/04/03 11:25:46;;;;;;;;;;;;;;;20.86;44.84;102687.25;4965310;28;2624;-66
2023/04/03 11:28:13;;;;;;;;;;;;;;;20.88;44.90;102678.03;4967824;28;2596;-64
2023/04/03 11:30:41;;;;;;;;;;;;;;;20.89;44.77;102677.41;4968910;28;2458;-67
2023/04/03 11:33:25;;;;;;;;;;;;;;;20.88;44.82;102678.78;4968998;28;2366;-66
2023/04/03 11:35:52;;;;;;;;;;;;;;;20.87;44.96;102688.78;4966561;28;1793;-66
2023/04/03 11:38:21;;;;;;;;;;;;;;;20.90;44.73;102670.28;4964058;28;2714;-66
2023/04/03 11:40:48;;;;;;;;;;;;;;;20.89;44.94;102674.53;4949005;28;2524;-66
2023/04/03 11:43:20;;;;;;;;;;;;;;;20.90;45.02;102681.06;4966700;28;1678;-67
2023/04/03 11:45:50;;;;;;;;;;;;;;;20.89;45.19;102680.31;4963671;28;2481;-66
2023/04/03 11:48:29;;;;;;;;;;;;;;;20.91;45.10;102680.44;4961108;28;2588;-66
2023/04/03 11:50:55;;;;;;;;;;;;;;;20.89;45.18;102677.41;4965068;28;2659;-66
2023/04/03 11:53:31;;;;;;;;;;;;;;;20.92;45.11;102684.09;4965194;28;2369;-66
2023/04/03 11:55:58;;;;;;;;;;;;;;;20.92;45.18;102679.06;4963382;28;2511;-66
2023/04/03 11:58:29;;;;;;;;;;;;;;;20.91;45.17;102677.56;4962499;28;2634;-66
2023/04/03 12:00:58;;;;;;;;;;;;;;;20.91;45.02;102677.56;4965306;28;2838;-66
2023/04/03 12:03:28;;;;;;;;;;;;;;;20.90;45.08;102676.03;4965687;28;1705;-66
2023/04/03 12:05:57;;;;;;;;;;;;;;;20.93;45.12;102674.06;4965315;28;2737;-66
2023/04/03 12:08:24;;;;;;;;;;;;;;;20.91;45.05;102674.69;4962347;28;2245;-66
2023/04/03 12:11:13;;;;;;;;;;;;;;;20.91;44.96;102676.78;4964783;28;2678;-66
2023/04/03 12:13:40;;;;;;;;;;;;;;;20.90;45.36;102687.56;4962838;28;2384;-66
2023/04/03 12:16:20;;;;;;;;;;;;;;;20.91;45.18;102679.66;4965605;28;2642;-66
2023/04/03 12:18:50;;;;;;;;;;;;;;;20.92;45.24;102672.56;4966302;28;1794;-66
2023/04/03 12:21:19;;;;;;;;;;;;;;;20.93;45.20;102679.81;4961704;28;2507;-66
2023/04/03 12:24:05;;;;;;;;;;;;;;;20.93;45.18;102674.06;4966552;28;1869;-66
2023/04/03 12:26:43;;;;;;;;;;;;;;;20.92;45.28;102675.44;4964317;28;2591;-66
2023/04/03 12:29:32;;;;;;;;;;;;;;;20.92;45.25;102673.31;4966839;28;2370;-66
2023/04/03 12:32:17;;;;;;;;;;;;;;;20.91;45.20;102677.56;4967610;28;2560;-66
2023/04/03 12:34:53;;;;;;;;;;;;;;;20.92;45.33;102670.44;4966846;28;2676;-66
2023/04/03 12:37:19;;;;;;;;;;;;;;;20.91;45.31;102668.16;4963073;28;2551;-66
2023/04/03 12:40:06;;;;;;;;;;;;;;;20.90;45.33;102669.53;4967265;28;2508;-66
2023/04/03 12:42:52;;;;;;;;;;;;;;;20.91;45.15;102668.16;4956188;28;1887;-66
2023/04/03 12:45:22;;;;;;;;;;;;;;;20.91;45.26;102660.28;4966096;28;2789;-66
2023/04/03 12:47:49;;;;;;;;;;;;;;;20.91;45.26;102671.03;4963794;28;3013;-66
2023/04/03 12:50:21;;;;;;;;;;;;;;;20.91;45.28;102657.41;4967763;28;2398;-66
2023/04/03 12:53:06;;;;;;;;;;;;;;;20.89;45.49;102663.03;4963981;28;2558;-66
2023/04/03 12:55:33;;;;;;;;;;;;;;;20.93;45.27;102662.53;4957700;28;2448;-66
2023/04/03 12:58:16;;;;;;;;;;;;;;;20.92;45.23;102661.78;4966639;28;2648;-66